• Join FlightAware (Why Join?)
  • Login
  • US Flag 
 
05:09PM EST


 

Airport Tracker/Info


-or-


 

Live Flight TrackerFlight Track Log ✈ N960DL ✈ 25-May-2013 ✈ KLGA - KFLL

Flight Track Log - Related Links

Times and Time Zones

All times are in EDT time to prevent confusion due to time zone crossing. See the N960DL flight status page for this flight to view local times or setup timezone preferences in your user account.

Time Position Orientation Groundspeed Altitude Reporting Facility
EDT Latitude Longitude Course Direction KTS MPH feet Rate Location/Type
11:33AM 40.8333 -73.8833 180° South 198 228 2,400  Level New York TRACON
11:34AM 40.8000 -73.9333 229° Southwest 241 277 5,400 2,460 Climbing New York TRACON
11:35AM 40.4067 -74.0384 201° Southwest  Level FlightAware Approximate
11:35AM 40.7333 -73.9667 201° Southwest 290 334 7,400  Level New York TRACON
11:36AM 40.2852 -74.0991 201° Southwest  Level FlightAware Approximate
11:36AM 40.6667 -74.0333 217° Southwest 295 339 10,300  Level New York TRACON
11:37AM 40.1649 -74.1562 194° South  Level FlightAware Approximate
11:37AM 40.6000 -74.1167 224° Southwest 344 396 11,600  Level New York TRACON
11:38AM 40.0461 -74.2167 180° South  Level FlightAware Approximate
11:38AM 40.5000 -74.1500 194° South 401 461 13,600  Level New York TRACON
11:39AM 40.3436 -74.1831 189° South 437 503 16,100 2,700 Climbing New York Center
11:40AM 40.2261 -74.2044 188° South 437 503 20,100 2,400 Climbing New York Center
11:43AM 39.9833 -74.2703 192° South 391 450 23,900 1,620 Climbing Washington Center
11:44AM 39.8906 -74.3583 216° Southwest 391 450 25,500 1,380 Climbing Washington Center
11:45AM 39.7997 -74.4572 220° Southwest 415 478 26,800 1,320 Climbing Washington Center
11:46AM 39.7194 -74.5636 226° Southwest 423 487 28,200 1,020 Climbing Washington Center
11:47AM 39.6328 -74.6756 225° Southwest 428 493 28,900 840 Climbing Washington Center
11:48AM 39.5483 -74.7894 226° Southwest 433 498 30,000 1,140 Climbing Washington Center
11:49AM 39.4614 -74.9033 225° Southwest 439 505 31,200 1,020 Climbing Washington Center
11:50AM 39.3767 -75.0169 226° Southwest 439 505 32,100 720 Climbing Washington Center
11:51AM 39.2811 -75.1197 220° Southwest 439 505 32,700 720 Climbing Washington Center
11:52AM 39.1586 -75.1767 200° South 444 511 33,600 660 Climbing Washington Center
11:53AM 39.0356 -75.2283 198° South 458 527 34,000 180 Climbing Washington Center
11:54AM 38.9150 -75.2822 199° South 464 534 34,000  Level Washington Center
11:55AM 38.7878 -75.3333 197° South 479 551 34,000  Level Washington Center
11:56AM 38.6775 -75.3817 199° South 479 551 34,000  Level Washington Center
11:57AM 38.5631 -75.4272 197° South 487 560 34,000  Level Washington Center
11:58AM 38.4128 -75.4911 198° South 482 555 34,000  Level Washington Center
11:59AM 38.3003 -75.5389 198° South 482 555 34,000  Level Washington Center
12:00PM 38.1836 -75.6050 204° Southwest 477 549 34,000  Level Washington Center
12:01PM 38.0731 -75.6789 208° Southwest 463 533 34,000  Level Washington Center
12:02PM 37.9478 -75.7656 209° Southwest 463 533 34,000  Level Washington Center
12:03PM 37.8414 -75.8231 203° Southwest 468 539 34,000  Level Washington Center
12:04PM 37.7161 -75.9069 208° Southwest 468 539 34,000  Level Washington Center
12:05PM 37.5989 -75.9797 206° Southwest 468 539 34,000  Level Washington Center
12:06PM 37.4819 -76.0525 206° Southwest 468 539 34,000  Level Washington Center
12:07PM 37.3586 -76.1250 205° Southwest 468 539 34,000  Level Washington Center
12:08PM 37.2436 -76.1764 200° South 478 550 34,000  Level Washington Center
12:09PM 37.1161 -76.2325 199° South 490 564 34,000  Level Washington Center
12:10PM 36.9864 -76.2914 200° South 490 564 34,000  Level Washington Center
12:11PM 36.8589 -76.3500 200° South 490 564 34,000  Level Washington Center
12:12PM 36.7333 -76.4058 200° South 490 564 34,000  Level Washington Center
12:13PM 36.6078 -76.4639 200° South 490 564 34,000  Level Washington Center
12:14PM 36.4778 -76.5219 200° South 490 564 34,000  Level Washington Center
12:15PM 36.3503 -76.5744 198° South 495 570 34,000  Level Washington Center
12:16PM 36.2203 -76.6297 199° South 495 570 34,000  Level Washington Center
12:17PM 36.0947 -76.6844 199° South 489 563 34,000  Level Washington Center
12:18PM 35.9669 -76.7417 200° South 489 563 34,000  Level Washington Center
12:19PM 35.8411 -76.7936 199° South 489 563 34,000  Level Washington Center
12:20PM 35.7156 -76.8506 200° South 489 563 34,000  Level Washington Center
12:21PM 35.5958 -76.9025 199° South 482 555 34,000  Level Washington Center
12:22PM 35.4722 -76.9567 200° South 477 549 34,000  Level Washington Center
12:23PM 35.3464 -77.0106 199° South 477 549 34,000  Level Washington Center
12:24PM 35.2228 -77.0617 199° South 471 542 34,000  Level Washington Center
12:25PM 35.1011 -77.1153 200° South 466 536 34,000  Level Washington Center
12:26PM 34.9814 -77.1639 198° South 466 536 34,000  Level Washington Center
12:27PM 34.8597 -77.2144 199° South 466 536 34,000  Level Washington Center
12:28PM 34.7275 -77.2725 200° South 466 536 34,000  Level Washington Center
12:29PM 34.6081 -77.3206 198° South 461 531 34,000  Level Washington Center
12:30PM 34.4861 -77.3733 200° South 461 531 34,000  Level Washington Center
12:32PM 34.1925 -77.4978 199° South 443 510 34,000  Level Jacksonville Center
12:33PM 34.0839 -77.5422 199° South 455 524 34,000  Level Jacksonville Center
12:34PM 33.9669 -77.5919 199° South 455 524 34,000  Level Jacksonville Center
12:35PM 33.8461 -77.6417 199° South 455 524 34,000  Level Jacksonville Center
12:36PM 33.7311 -77.6886 199° South 455 524 34,000  Level Jacksonville Center
12:37PM 33.6000 -77.7436 199° South 455 524 34,000  Level Jacksonville Center
12:38PM 33.4953 -77.7869 199° South 455 524 34,000  Level Jacksonville Center
12:39PM 33.3803 -77.8358 200° South 455 524 34,000  Level Jacksonville Center
12:40PM 33.2611 -77.8800 197° South 450 518 34,000  Level Jacksonville Center
12:41PM 33.1461 -77.9286 199° South 450 518 34,000  Level Jacksonville Center
12:42PM 33.0289 -77.9722 197° South 445 512 34,000  Level Jacksonville Center
12:43PM 32.9097 -78.0208 199° South 445 512 34,000  Level Jacksonville Center
12:44PM 32.7883 -78.0669 198° South 450 518 34,000  Level Jacksonville Center
12:45PM 32.6689 -78.1103 197° South 450 518 34,000  Level Jacksonville Center
12:46PM 32.5497 -78.1561 198° South 456 525 34,000  Level Jacksonville Center
12:47PM 32.4303 -78.1992 197° South 456 525 34,000  Level Jacksonville Center
12:48PM 32.3131 -78.2469 199° South 456 525 34,000  Level Jacksonville Center
12:49PM 32.1936 -78.2922 198° South 456 525 34,000  Level Jacksonville Center
12:50PM 32.0761 -78.3350 197° South 456 525 34,000  Level Jacksonville Center
12:51PM 31.9547 -78.3825 198° South 457 526 34,000  Level Jacksonville Center
12:52PM 31.8331 -78.4278 198° South 451 519 34,000  Level Jacksonville Center
12:53PM 31.7136 -78.4725 198° South 456 525 34,000 -60 Level Jacksonville Center
12:54PM 31.5942 -78.5147 197° South 451 519 33,900  Descending Jacksonville Center
12:55PM 31.4725 -78.5594 197° South 456 525 34,000  Climbing Jacksonville Center
12:56PM 31.3528 -78.6039 198° South 456 525 34,000  Level Jacksonville Center
12:57PM 31.2333 -78.6483 198° South 456 525 34,000  Level Jacksonville Center
12:58PM 31.1097 -78.6950 198° South 456 525 34,000  Level Jacksonville Center
12:59PM 30.9858 -78.7394 197° South 461 531 34,000  Level Jacksonville Center
01:00PM 30.8706 -78.7881 200° South 454 522 34,000  Level Jacksonville Center
01:01PM 30.7383 -78.8322 196° South 461 531 34,000  Level Jacksonville Center
01:02PM 30.6208 -78.8761 198° South 461 531 34,000  Level Jacksonville Center
01:02PM 30.5742 -78.8933 198° South 462 532 34,000  Level Miami Center
01:03PM 30.4528 -78.9392 198° South 461 531 34,000  Level Miami Center
01:04PM 30.3292 -78.9800 196° South 461 531 34,000  Level Miami Center
01:05PM 30.1972 -79.0253 197° South 461 531 34,000  Level Miami Center
01:06PM 30.0756 -79.0683 197° South 461 531 34,000  Level Miami Center
01:07PM 29.9433 -79.1303 202° Southwest 461 531 34,000  Level Miami Center
01:08PM 29.8114 -79.1633 192° South 474 545 34,000  Level Miami Center
01:09PM 29.6856 -79.2014 195° South 474 545 34,000  Level Miami Center
01:10PM 29.5539 -79.2269 190° South 481 554 34,000  Level Miami Center
01:11PM 29.4219 -79.2600 192° South 481 554 34,000  Level Miami Center
01:12PM 29.2961 -79.2928 193° South 481 554 34,000  Level Miami Center
01:13PM 29.1622 -79.3256 192° South 486 559 34,000  Level Miami Center
01:14PM 29.0342 -79.3583 193° South 481 554 34,000  Level Miami Center
01:15PM 28.9044 -79.3908 192° South 481 554 34,000  Level Miami Center
01:16PM 28.7744 -79.4211 192° South 481 554 34,000  Level Miami Center
01:17PM 28.6425 -79.4536 192° South 487 560 34,000  Level Miami Center
01:18PM 28.5103 -79.4883 193° South 487 560 34,000  Level Miami Center
01:19PM 28.3803 -79.5206 192° South 487 560 34,000  Level Miami Center
01:20PM 28.2503 -79.5506 191° South 487 560 34,000  Level Miami Center
01:21PM 28.1183 -79.5828 192° South 492 566 34,000  Level Miami Center
01:22PM 27.9861 -79.6172 193° South 487 560 34,000  Level Miami Center
01:23PM 27.8708 -79.6450 192° South 481 554 34,000 -960 Level Miami Center
01:24PM 27.7386 -79.6769 192° South 476 548 32,100 -2,580 Descending Miami Center
01:25PM 27.5981 -79.7108 192° South 469 540 28,900 -3,180 Descending Miami Center
01:26PM 27.4658 -79.7406 191° South 475 547 25,800 -2,700 Descending Miami Center
01:27PM 27.3364 -79.7394 180° South 475 547 23,600 -1,920 Descending Miami Center
01:28PM 27.2219 -79.7275 175° South 463 533 22,000 -1,920 Descending Miami Center
01:29PM 27.1008 -79.7175 176° South 451 519 19,800 -1,980 Descending Miami Center
01:30PM 26.9778 -79.7075 176° South 413 475 18,100 -1,740 Descending Miami Center
01:31PM 26.8800 -79.6981 175° South 374 430 16,400 -1,800 Descending Miami Center
01:32PM 26.7756 -79.6886 175° South 367 422 14,500 -1,800 Descending Miami Center
01:33PM 26.6853 -79.7119 193° South 353 406 12,800 -1,800 Descending Miami Center
01:34PM 26.5989 -79.7561 205° Southwest 336 387 10,900 -1,860 Descending Miami Center
01:35PM 26.5189 -79.7939 203° Southwest 326 375 9,300 -1,500 Descending Miami Center
01:36PM 26.4344 -79.8333 203° Southwest 316 364 8,000 -660 Descending Miami Center
01:38PM 26.3603 -79.8803 210° Southwest 267 307 8,000 -360 Level Miami Center
01:38PM 26.3092 -79.9253 218° Southwest 242 278 7,300 -540 Descending Miami Center
01:40PM 26.2517 -79.9817 221° Southwest 239 275 7,000 -180 Descending Miami Center
01:41PM 26.2025 -80.0314 222° Southwest 239 275 7,000 -420 Level Miami Center
01:41PM 26.1703 -80.0769 232° Southwest 242 278 6,300 -540 Descending Miami Center
01:43PM 26.1478 -80.1503 251° West 229 264 6,000 -300 Descending Miami Center
01:43PM 26.1483 -80.2103 271° West 226 260 5,800 -900 Descending Miami Center
01:44PM 26.1469 -80.2797 269° West 226 260 4,300 -900 Descending Miami Center
01:46PM 26.1450 -80.3608 268° West 216 249 4,000 -180 Descending Miami Center
01:47PM 26.1456 -80.4233 271° West 197 227 4,000  Level Miami Center
01:48PM 26.1358 -80.4831 260° West 191 220 4,000  Level Miami Center
01:49PM 26.0989 -80.4564 147° Southeast 175 201 4,000 -420 Level Miami Center
01:50PM 26.0769 -80.4072 116° Southeast 171 197 3,200 -600 Descending Miami Center
01:51PM 26.0742 -80.3542 93° East 167 192 2,900 -300 Descending Miami Center